KJFZ Airport Information

Runway Information
Runway 07 Length 4300 ft width 75 ft
Elevation 2652 ft Threshold 0 ft Heading 66
Runway 25 Length 4300 ft Width 75 ft
Elevation 2652 ft Threshold 0 ft Heading 246
Airport Frequencies
Type ACC Name ATLANTA CN Frequency 132.9 MHZ
Type AWOS Name AWOS 3 Frequency 118.075 MHZ
Type CNTR Name INDIANAPOL Frequency 126.575 MHZ
Type UNIC Name CTAF/UNICO Frequency 123.05 MHZ
Airport Navaids
Airport Weather Information & NOTAM
ADDS - METARS form results

(2006 UTC 27 November 2020)
Data provider http://aviationweather.gov/metar/data/
 
METAR text: KJFZ 271955Z AUTO 27004KT 10SM CLR 12/03 A3008 RMK AO2 T01170032
Conditions at: KJFZ (RICHLANDS , VA, US) observed 1955 UTC 27 November 2020
Temperature: 11.7°C (53°F)
Dewpoint: 3.2°C (38°F) [RH = 56%]
Pressure (altimeter): 30.08 inches Hg (1018.7 mb)
Winds: from the W (270 degrees) at 5 MPH (4 knots; 2.1 m/s)
Visibility: 10 or more miles (16+ km)
Ceiling: at least 12,000 feet AGL
Clouds: sky clear below 12,000 feet AGL
Weather: automated observation with no human augmentation;
there may or may not be significant weather present at this time

METAR text: KJFZ 271935Z AUTO 26006KT 10SM CLR 12/03 A3008 RMK AO2 T01170029
Conditions at: KJFZ (RICHLANDS , VA, US) observed 1935 UTC 27 November 2020
Temperature: 11.7°C (53°F)
Dewpoint: 2.9°C (37°F) [RH = 55%]
Pressure (altimeter): 30.08 inches Hg (1018.7 mb)
Winds: from the W (260 degrees) at 7 MPH (6 knots; 3.1 m/s)
Visibility: 10 or more miles (16+ km)
Ceiling: at least 12,000 feet AGL
Clouds: sky clear below 12,000 feet AGL
Weather: automated observation with no human augmentation;
there may or may not be significant weather present at this time

METAR text: KJFZ 271915Z AUTO 30005KT 10SM CLR 12/03 A3008 RMK AO2 T01160033
Conditions at: KJFZ (RICHLANDS , VA, US) observed 1915 UTC 27 November 2020
Temperature: 11.6°C (53°F)
Dewpoint: 3.3°C (38°F) [RH = 57%]
Pressure (altimeter): 30.08 inches Hg (1018.7 mb)
Winds: from the WNW (300 degrees) at 6 MPH (5 knots; 2.6 m/s)
Visibility: 10 or more miles (16+ km)
Ceiling: at least 12,000 feet AGL
Clouds: sky clear below 12,000 feet AGL
Weather: automated observation with no human augmentation;
there may or may not be significant weather present at this time